Time,TemperatureF,DewpointF,PressureIn,WindDirection,WindDirectionDegrees,WindSpeedMPH,WindSpeedGustMPH,Humidity,HourlyPrecipIn,Conditions,Clouds,dailyrainin,SoftwareType,DateUTC
2013-09-19 00:21:00,52.0,51.0,30.03,North,0,0.0,0.0,96,49.01,,,-99.99,,2013-09-19 07:21:00,
2013-09-19 00:52:00,51.0,50.0,30.03,North,0,0.0,0.0,96,49.01,,,-99.99,,2013-09-19 07:52:00,
2013-09-19 01:21:00,51.0,50.0,30.02,North,0,0.0,0.0,97,49.01,,,-99.99,,2013-09-19 08:21:00,
2013-09-19 01:52:00,50.0,49.0,30.02,North,0,0.0,0.0,97,49.01,,,-99.99,,2013-09-19 08:52:00,
2013-09-19 02:21:00,50.0,49.0,30.02,North,0,0.0,0.0,97,49.01,,,-99.99,,2013-09-19 09:21:00,
2013-09-19 02:53:00,50.0,49.0,30.02,North,0,0.0,0.0,97,49.01,,,-99.99,,2013-09-19 09:53:00,
2013-09-19 03:23:00,49.0,48.0,30.02,North,0,0.0,0.0,97,49.01,,,-99.99,,2013-09-19 10:23:00,
2013-09-19 03:52:00,49.0,48.0,30.02,North,0,0.0,0.0,97,49.01,,,-99.99,,2013-09-19 10:52:00,
2013-09-19 04:22:00,49.0,48.0,30.01,North,0,0.0,0.0,97,49.01,,,-99.99,,2013-09-19 11:22:00,
2013-09-19 04:52:00,48.0,47.0,30.01,North,0,0.0,0.0,97,49.01,,,-99.99,,2013-09-19 11:52:00,
2013-09-19 05:21:00,48.0,47.0,30.00,North,0,0.0,0.0,97,49.01,,,-99.99,,2013-09-19 12:21:00,
2013-09-19 05:52:00,48.0,47.0,30.00,North,0,0.0,0.0,97,49.01,,,-99.99,,2013-09-19 12:52:00,
2013-09-19 06:21:00,47.0,46.0,30.01,North,0,0.0,0.0,97,49.01,,,-99.99,,2013-09-19 13:21:00,
2013-09-19 06:52:00,47.0,46.0,30.01,North,0,0.0,0.0,97,49.01,,,-99.99,,2013-09-19 13:52:00,
2013-09-19 07:22:00,47.0,46.0,30.01,North,0,0.0,0.0,98,49.01,,,-99.99,,2013-09-19 14:22:00,
2013-09-19 07:52:00,47.0,46.0,30.01,North,0,0.0,0.0,98,49.01,,,-99.99,,2013-09-19 14:52:00,
2013-09-19 08:21:00,47.0,46.0,30.00,North,0,0.0,0.0,98,49.01,,,-99.99,,2013-09-19 15:21:00,
2013-09-19 08:53:00,47.0,46.0,29.99,North,0,0.0,0.0,98,49.01,,,-99.99,,2013-09-19 15:53:00,
2013-09-19 09:03:00,47.0,46.0,29.99,North,0,0.0,0.0,98,49.01,,,-99.99,,2013-09-19 16:03:00,
2013-09-19 10:23:00,54.0,51.0,29.96,North,0,0.0,0.0,91,49.01,,,-99.99,,2013-09-19 17:23:00,
2013-09-19 10:53:00,57.0,52.0,29.95,North,0,0.0,0.0,84,49.01,,,-99.99,,2013-09-19 17:53:00,
2013-09-19 11:11:00,59.0,53.0,29.95,South,174,1.0,4.0,81,49.01,,,-99.99,,2013-09-19 18:11:00,
2013-09-19 11:22:00,61.0,53.0,29.94,SSW,205,0.0,2.0,74,49.01,,,-99.99,,2013-09-19 18:22:00,
2013-09-19 11:32:00,61.0,53.0,29.94,SSW,205,0.0,2.0,74,49.01,,,-99.99,,2013-09-19 18:32:00,
2013-09-19 11:52:00,64.0,52.0,29.93,South,191,0.0,1.0,66,49.01,,,-99.99,,2013-09-19 18:52:00,
2013-09-19 12:12:00,67.0,54.0,29.92,SSW,200,0.0,2.0,63,49.01,,,-99.99,,2013-09-19 19:12:00,
2013-09-19 12:21:00,68.0,54.0,29.92,SSW,200,1.0,3.0,62,49.01,,,-99.99,,2013-09-19 19:21:00,
2013-09-19 13:21:00,75.0,57.0,29.88,WNW,297,1.0,3.0,54,49.01,,,-99.99,,2013-09-19 20:21:00,
2013-09-19 13:42:00,76.0,55.0,29.88,NNW,340,1.0,4.0,48,49.01,,,-99.99,,2013-09-19 20:42:00,
2013-09-19 13:52:00,77.0,55.0,29.87,North,0,0.0,0.0,47,49.01,,,-99.99,,2013-09-19 20:52:00,
2013-09-19 14:22:00,78.0,52.0,29.86,North,0,0.0,0.0,40,49.01,,,-99.99,,2013-09-19 21:22:00,
2013-09-19 14:55:00,80.0,50.0,29.85,NNW,335,0.0,3.0,35,49.01,,,-99.99,,2013-09-19 21:55:00,
2013-09-19 15:24:00,81.0,48.0,29.84,North,0,0.0,0.0,32,49.01,,,-99.99,,2013-09-19 22:24:00,
2013-09-19 15:53:00,81.0,45.0,29.84,NW,309,2.0,4.0,28,49.01,,,-99.99,,2013-09-19 22:53:00,
2013-09-19 16:12:00,79.0,47.0,29.82,SE,146,2.0,6.0,32,49.01,,,-99.99,,2013-09-19 23:12:00,
2013-09-19 16:22:00,79.0,47.0,29.82,SE,146,2.0,6.0,32,49.01,,,-99.99,,2013-09-19 23:22:00,
2013-09-19 16:53:00,82.0,47.0,29.80,SE,143,3.0,7.0,30,49.01,,,-99.99,,2013-09-19 23:53:00,
2013-09-19 17:21:00,82.0,46.0,29.80,SSW,200,2.0,7.0,28,49.01,,,-99.99,,2013-09-20 00:21:00,
2013-09-19 17:52:00,81.0,46.0,29.79,SSE,150,3.0,6.0,29,49.01,,,-99.99,,2013-09-20 00:52:00,
2013-09-19 18:22:00,80.0,44.0,29.78,SSE,152,5.0,10.0,28,49.01,,,-99.99,,2013-09-20 01:22:00,
2013-09-19 18:52:00,80.0,49.0,29.78,SSE,160,1.0,7.0,34,49.01,,,-99.99,,2013-09-20 01:52:00,
2013-09-19 19:02:00,80.0,49.0,29.78,SSE,160,1.0,7.0,34,49.01,,,-99.99,,2013-09-20 02:02:00,
2013-09-19 19:22:00,74.0,54.0,29.79,North,11,1.0,4.0,50,49.01,,,-99.99,,2013-09-20 02:22:00,
2013-09-19 19:52:00,69.0,54.0,29.80,North,0,0.0,0.0,58,49.01,,,-99.99,,2013-09-20 02:52:00,
2013-09-19 20:02:00,65.0,53.0,29.80,North,0,0.0,0.0,65,49.01,,,-99.99,,2013-09-20 03:02:00,
2013-09-19 20:22:00,65.0,53.0,29.80,North,0,0.0,0.0,65,49.01,,,-99.99,,2013-09-20 03:22:00,
2013-09-19 20:34:00,65.0,53.0,29.80,North,0,0.0,0.0,65,49.01,,,-99.99,,2013-09-20 03:34:00,
2013-09-19 20:56:00,65.0,53.0,29.80,North,0,0.0,0.0,65,49.01,,,-99.99,,2013-09-20 03:56:00,
2013-09-19 21:54:00,62.0,53.0,29.81,North,0,0.0,0.0,72,49.01,,,-99.99,,2013-09-20 04:54:00,
2013-09-19 22:23:00,60.0,52.0,29.81,North,0,0.0,0.0,75,49.01,,,-99.99,,2013-09-20 05:23:00,
2013-09-19 22:53:00,60.0,51.0,29.81,North,0,0.0,0.0,73,49.01,,,-99.99,,2013-09-20 05:53:00,
2013-09-19 23:21:00,59.0,51.0,29.81,North,0,0.0,0.0,75,49.01,,,-99.99,,2013-09-20 06:21:00,
2013-09-19 23:52:00,59.0,51.0,29.81,North,0,0.0,0.0,76,49.01,,,-99.99,,2013-09-20 06:52:00,